Airfield :
LOGIN :

Register | Disclaimer

   EN    FR    IT 

 










Legend :    VFR   Marginal VFR   IFR   Intensive IFR   Very Intensive IFR
Visi :
Ceiling :
>= 8 km
>= 3000ft
5 to 8 km
1000 to 3000 ft
1500m to 5 km
500 to 1000 ft
800 to 1500m
200 to 500 ft
< 800m
< 200 ft
Symbols :   Thunderstorms  Fog  Heavy snow  Heavy precipitations  Wind > 20 kt
SIGMETs :     Misc.  Thunderstorms  Icing  Turbulence  Mountain Waves  Volcanic Ashes






- Airport Elevation : 650 ft
- IATA code : ZJI


LSZL - Locarno

CURRENT METAR :
  • 202120Z AUTO 27010G21KT 230V330 9999NDV -SHRA ////// 21/16 Q1011 RMK MIS

EXPIRED METARs :
  • 202050Z AUTO 24009G19KT 170V290 9999NDV -SHRA FEW070 SCT130 OVC160 21/17 Q1011 RMK
  • 202020Z AUTO VRB04KT 9999NDV -RA SCT067 SCT089 OVC210 21/19 Q1010 RMK
  • 201950Z AUTO VRB02KT 9999NDV ////// 22/19 Q1010 RMK MIS
  • 201920Z AUTO VRB01KT 9999NDV ////// 22/18 Q1010 RMK MIS
  • 201850Z AUTO VRB02KT 9999NDV ////// 23/19 Q1010 RMK MIS

TAF TAF LSZL
Valid from the 20 at 18:00 until the 21 at 03:00 UTC


201725Z 2018/2103 VRB02KT 9999 FEW120
TEMPO 2018/2103 20015G35KT SHRA SCT050TCU
PROB30
TEMPO 2019/2023 4500 TSRA SCT050CB



MET'MAP, your aeronautical weather chart ! - Copyright ORBIFLY December 2007 - Disclaimer

ORBIFLY MET'MAP TEAM :

Programming & Development : Alexandra Zaïnal
Concept & original design : Baudouin d'Aumeries
Assistance for programming : Marc-Olivier Méhu
Technical & hardware support : Manuel Goepfert

Contact : metmap@orbifly.com




SOURCES & CREDITS :

   NOAA